Time;durP1;ratioP1;P1;durP2;ratioP2;P2;SDS_P1;SDS_P2;PMS_P1;PMS_P2;Temp;Humidity;BMP_temperature;BMP_pressure;BME280_temperature;BME280_humidity;BME280_pressure;Samples;Min_cycle;Max_cycle;Signal;HPM_P1;HPM_P2
2023/12/03 00:04:10;;;;;;;195.18;187.80;;;8.50;84.00;;;;;;12589971;28;20028;-73
2023/12/03 00:10:14;;;;;;;101.53;97.82;;;8.50;84.00;;;;;;12590009;28;20032;-72
2023/12/03 00:16:19;;;;;;;176.07;169.52;;;8.50;84.00;;;;;;12608286;28;20339;-72
2023/12/03 00:22:24;;;;;;;106.93;103.07;;;8.40;84.00;;;;;;12607237;28;20051;-72
2023/12/03 00:28:27;;;;;;;111.30;107.28;;;8.50;83.80;;;;;;12589333;28;20032;-72
2023/12/03 00:34:29;;;;;;;169.23;162.95;;;8.40;83.70;;;;;;12572766;28;20048;-72
2023/12/03 00:40:31;;;;;;;151.98;146.27;;;8.40;83.70;;;;;;12607263;28;20426;-73
2023/12/03 00:46:33;;;;;;;93.43;90.00;;;8.40;83.80;;;;;;12606110;28;20378;-72
2023/12/03 00:52:35;;;;;;;193.98;186.57;;;8.50;83.80;;;;;;12606008;28;20036;-73
2023/12/03 00:58:37;;;;;;;176.90;170.10;;;8.50;83.70;;;;;;12588492;28;20459;-73
2023/12/03 01:04:39;;;;;;;221.57;212.80;;;8.40;83.70;;;;;;12605234;28;20035;-72
2023/12/03 01:10:41;;;;;;;129.55;124.75;;;8.30;83.60;;;;;;12605437;28;20036;-72
2023/12/03 01:16:42;;;;;;;142.95;137.70;;;8.30;83.60;;;;;;12604024;28;20059;-72
2023/12/03 01:22:44;;;;;;;152.98;147.23;;;8.20;83.70;;;;;;12604493;28;20028;-74
2023/12/03 01:28:45;;;;;;;130.38;125.55;;;8.20;83.90;;;;;;12604819;28;20039;-75
2023/12/03 01:34:47;;;;;;;154.32;148.43;;;8.10;83.60;;;;;;12604772;28;20033;-74
2023/12/03 01:40:52;;;;;;;138.68;133.35;;;7.90;83.50;;;;;;12586786;28;20035;-74
2023/12/03 01:46:58;;;;;;;147.68;142.00;;;7.90;84.10;;;;;;12604416;28;20431;-75
2023/12/03 01:52:59;;;;;;;148.02;142.48;;;7.90;84.20;;;;;;12603835;28;20032;-75
2023/12/03 01:59:01;;;;;;;114.95;110.55;;;7.90;84.40;;;;;;12569571;28;20458;-74
2023/12/03 02:05:02;;;;;;;124.50;119.80;;;7.70;84.10;;;;;;12603315;28;20059;-74
2023/12/03 02:11:06;;;;;;;106.25;102.05;;;7.70;84.30;;;;;;12603077;28;20028;-74
2023/12/03 02:17:07;;;;;;;114.68;110.38;;;7.70;84.50;;;;;;12603011;28;20036;-74
2023/12/03 02:23:09;;;;;;;150.75;144.77;;;7.80;84.60;;;;;;12602933;28;20457;-74
2023/12/03 02:29:10;;;;;;;113.10;108.45;;;7.70;84.70;;;;;;12572904;28;20044;-74
2023/12/03 02:35:12;;;;;;;166.52;160.05;;;7.70;84.80;;;;;;12612951;28;20025;-74
2023/12/03 02:41:14;;;;;;;121.38;116.57;;;7.80;84.60;;;;;;12594263;28;20040;-74
2023/12/03 02:47:15;;;;;;;97.10;93.25;;;7.90;84.40;;;;;;12611654;28;20032;-75
2023/12/03 02:53:17;;;;;;;126.32;121.68;;;7.90;84.30;;;;;;12593821;28;20063;-74
2023/12/03 02:59:18;;;;;;;149.60;144.02;;;7.90;84.20;;;;;;12611837;28;20362;-74
2023/12/03 03:05:20;;;;;;;136.80;131.32;;;7.80;84.10;;;;;;12610844;28;20033;-74
2023/12/03 03:11:22;;;;;;;135.40;130.02;;;7.80;84.00;;;;;;12560298;28;20074;-74
2023/12/03 03:17:23;;;;;;;113.90;109.35;;;7.70;83.90;;;;;;12610419;28;20351;-74
2023/12/03 03:23:25;;;;;;;114.65;110.03;;;7.70;83.90;;;;;;12610109;28;20320;-74
2023/12/03 03:29:26;;;;;;;111.65;107.10;;;7.80;83.80;;;;;;12592152;28;20052;-75
2023/12/03 03:35:28;;;;;;;137.02;131.73;;;7.90;83.70;;;;;;12609559;28;20442;-74
2023/12/03 03:41:29;;;;;;;137.52;132.05;;;7.90;83.60;;;;;;12608488;28;20040;-74
2023/12/03 03:47:31;;;;;;;144.07;138.70;;;7.90;83.70;;;;;;12591125;28;20439;-74
2023/12/03 03:53:33;;;;;;;138.20;132.73;;;7.90;84.00;;;;;;12590831;28;20059;-74
2023/12/03 03:59:34;;;;;;;131.07;125.70;;;7.90;84.40;;;;;;12590627;28;20027;-75
2023/12/03 04:05:36;;;;;;;122.22;117.40;;;7.90;84.60;;;;;;12590925;28;20059;-75
2023/12/03 04:11:42;;;;;;;122.68;118.13;;;7.90;84.40;;;;;;12607743;28;20037;-74
2023/12/03 04:17:44;;;;;;;127.45;122.32;;;7.80;84.60;;;;;;12607617;28;20427;-74
2023/12/03 04:23:46;;;;;;;129.30;124.50;;;7.90;84.70;;;;;;12589436;28;20028;-74
2023/12/03 04:29:48;;;;;;;117.47;112.75;;;7.70;84.60;;;;;;12607091;28;20533;-74
2023/12/03 04:35:49;;;;;;;115.97;111.32;;;7.70;84.90;;;;;;12588942;28;20033;-74
2023/12/03 04:41:51;;;;;;;109.50;105.13;;;7.60;85.10;;;;;;12606391;28;20362;-74
2023/12/03 04:47:53;;;;;;;106.03;102.03;;;7.60;85.30;;;;;;12571645;28;20044;-74
2023/12/03 04:53:54;;;;;;;125.00;120.20;;;7.60;85.20;;;;;;12605703;28;20036;-74
2023/12/03 04:59:56;;;;;;;125.80;120.85;;;7.60;85.20;;;;;;12587700;28;20039;-74
2023/12/03 05:05:58;;;;;;;110.15;105.70;;;7.50;85.00;;;;;;12605188;28;20036;-74
2023/12/03 05:11:59;;;;;;;109.63;105.25;;;7.50;85.10;;;;;;12587740;28;20028;-74
2023/12/03 05:18:01;;;;;;;96.03;92.30;;;7.40;85.10;;;;;;12587535;28;20032;-74
2023/12/03 05:24:02;;;;;;;85.18;81.93;;;7.40;84.90;;;;;;12605207;28;20028;-74
2023/12/03 05:30:05;;;;;;;94.88;91.28;;;7.20;84.80;;;;;;12604165;28;20035;-74
2023/12/03 05:36:07;;;;;;;81.05;77.95;;;7.20;84.70;;;;;;12604215;28;20020;-74
2023/12/03 05:42:09;;;;;;;67.88;65.20;;;7.20;84.60;;;;;;12569468;28;20055;-74
2023/12/03 05:48:10;;;;;;;76.13;73.18;;;7.20;84.40;;;;;;12603695;28;20048;-74
2023/12/03 05:54:12;;;;;;;66.97;64.47;;;7.20;84.30;;;;;;12604031;28;20033;-74
2023/12/03 06:00:14;;;;;;;77.05;74.10;;;7.10;84.10;;;;;;12585610;28;20036;-74
2023/12/03 06:06:16;;;;;;;93.93;90.28;;;7.10;84.20;;;;;;12617006;28;20032;-74
2023/12/03 06:12:18;;;;;;;51.28;49.22;;;7.10;84.20;;;;;;12620411;28;20040;-74
2023/12/03 06:18:21;;;;;;;67.20;64.72;;;7.10;84.40;;;;;;12621024;28;20060;-74
2023/12/03 06:24:25;;;;;;;64.60;62.00;;;7.00;84.30;;;;;;12602437;28;20122;-74
2023/12/03 06:30:26;;;;;;;65.15;62.55;;;7.00;84.20;;;;;;12619355;28;20032;-74
2023/12/03 06:36:28;;;;;;;78.95;75.78;;;7.00;84.20;;;;;;12601661;28;20029;-74
2023/12/03 06:42:29;;;;;;;83.88;80.53;;;6.90;84.10;;;;;;12619042;28;20029;-75
2023/12/03 06:48:31;;;;;;;60.25;57.75;;;6.90;84.00;;;;;;12600434;28;20041;-74
2023/12/03 06:54:32;;;;;;;48.60;46.58;;;6.80;83.90;;;;;;12624944;22;20052;-75
2023/12/03 07:00:34;;;;;;;55.53;53.13;;;6.80;83.80;;;;;;12584337;28;20048;-75
2023/12/03 07:07:07;;;;;;;59.70;57.25;;;6.80;83.80;;;;;;12599978;28;20024;-75
2023/12/03 07:13:11;;;;;;;64.63;60.65;;;6.80;83.80;;;;;;12617081;28;20036;-75
2023/12/03 07:19:14;;;;;;;57.90;55.45;;;6.70;83.80;;;;;;12610092;28;20435;-75
2023/12/03 07:25:16;;;;;;;74.78;71.38;;;6.60;84.00;;;;;;12575947;28;20032;-75
2023/12/03 07:31:48;;;;;;;58.55;55.22;;;6.70;84.00;;;;;;12609754;28;20043;-76
2023/12/03 07:37:56;;;;;;;57.15;54.10;;;6.70;84.20;;;;;;12609433;28;20044;-75
2023/12/03 07:44:02;;;;;;;69.38;66.20;;;6.80;84.30;;;;;;12592170;28;20032;-75
2023/12/03 07:50:05;;;;;;;74.43;71.18;;;6.90;84.50;;;;;;12609349;28;20029;-74
2023/12/03 07:56:07;;;;;;;74.75;71.38;;;7.00;84.50;;;;;;12591049;28;20032;-75
2023/12/03 08:02:09;;;;;;;89.15;85.45;;;7.00;84.50;;;;;;12590855;28;20045;-74
2023/12/03 08:08:40;;;;;;;75.38;72.35;;;7.00;84.80;;;;;;12608092;28;20039;-74
2023/12/03 08:14:43;;;;;;;88.20;84.78;;;7.10;85.00;;;;;;12607764;28;20075;-74
2023/12/03 08:20:47;;;;;;;101.30;97.30;;;7.10;85.10;;;;;;12607606;28;20040;-74
2023/12/03 08:26:50;;;;;;;113.88;109.22;;;7.20;85.20;;;;;;12607154;28;20036;-74
2023/12/03 08:33:29;;;;;;;104.97;100.75;;;7.20;85.20;;;;;;12486302;28;20456;-72
2023/12/03 08:39:58;;;;;;;96.75;93.00;;;7.20;85.40;;;;;;12485503;28;20391;-72
2023/12/03 08:46:01;;;;;;;118.65;114.13;;;7.20;85.30;;;;;;12485065;28;20060;-73
2023/12/03 08:52:08;;;;;;;122.20;117.43;;;7.20;85.60;;;;;;12501375;28;20037;-73
2023/12/03 08:58:12;;;;;;;106.85;102.82;;;7.20;85.40;;;;;;12484641;28;20038;-73
2023/12/03 09:04:13;;;;;;;111.78;107.43;;;7.20;85.60;;;;;;12500979;28;20503;-74
2023/12/03 09:10:15;;;;;;;110.20;106.00;;;7.30;85.60;;;;;;12484219;28;20048;-74
2023/12/03 09:16:16;;;;;;;142.32;136.93;;;7.20;84.80;;;;;;12483846;28;20033;-75
2023/12/03 09:22:18;;;;;;;159.85;153.68;;;7.30;85.20;;;;;;12500023;28;20056;-74
2023/12/03 09:28:20;;;;;;;142.90;137.55;;;7.30;85.40;;;;;;12499802;28;20037;-74
2023/12/03 09:34:22;;;;;;;168.35;161.85;;;7.50;85.60;;;;;;12483202;28;20025;-74
2023/12/03 09:40:24;;;;;;;168.23;161.77;;;7.50;85.70;;;;;;12482160;28;20053;-74
2023/12/03 09:46:31;;;;;;;165.93;159.65;;;7.60;85.50;;;;;;12446718;28;20038;-74
2023/12/03 09:52:37;;;;;;;150.52;144.07;;;7.60;85.30;;;;;;12434291;28;20365;-74
2023/12/03 09:58:39;;;;;;;135.18;130.13;;;7.60;85.20;;;;;;12450746;28;20049;-74
2023/12/03 10:04:41;;;;;;;104.78;100.68;;;7.70;85.10;;;;;;12456578;28;20467;-74
2023/12/03 10:10:50;;;;;;;96.57;92.78;;;7.70;85.30;;;;;;12507769;28;20474;-73
2023/12/03 10:16:55;;;;;;;57.20;54.88;;;7.90;85.30;;;;;;12603120;28;20033;-73
2023/12/03 10:23:04;;;;;;;62.25;59.80;;;7.90;84.80;;;;;;12569400;28;20443;-73
2023/12/03 10:29:06;;;;;;;137.68;132.68;;;7.90;84.90;;;;;;12602742;28;20028;-73
2023/12/03 10:35:09;;;;;;;79.90;76.63;;;8.00;84.50;;;;;;12602615;28;20443;-73
2023/12/03 10:41:14;;;;;;;67.35;64.75;;;8.20;84.90;;;;;;12602362;28;20029;-73
2023/12/03 10:47:16;;;;;;;48.60;46.20;;;8.30;85.10;;;;;;12584434;28;20029;-73
2023/12/03 10:53:19;;;;;;;36.20;34.00;;;8.40;84.80;;;;;;12594015;28;20190;-72
2023/12/03 10:59:40;;;;;;;50.45;47.05;;;8.60;84.50;;;;;;12611905;28;20032;-73
2023/12/03 11:05:52;;;;;;;21.25;19.90;;;8.70;83.20;;;;;;12610971;28;20038;-73
2023/12/03 11:11:54;;;;;;;14.05;13.10;;;8.90;82.90;;;;;;12610676;28;20357;-72
2023/12/03 11:17:56;;;;;;;20.42;17.73;;;9.00;82.50;;;;;;12610519;28;20455;-73
2023/12/03 11:24:16;;;;;;;22.92;20.73;;;9.10;81.00;;;;;;12610243;28;20040;-73
2023/12/03 11:30:35;;;;;;;9.38;7.18;;;9.10;79.90;;;;;;12592579;28;20040;-73
2023/12/03 11:36:47;;;;;;;9.00;8.20;;;9.20;80.20;;;;;;12575550;28;20032;-73
2023/12/03 11:42:49;;;;;;;4.50;3.78;;;9.30;79.60;;;;;;12609517;28;20041;-73
2023/12/03 11:48:51;;;;;;;4.85;3.90;;;9.30;79.70;;;;;;12609835;28;20028;-73
2023/12/03 11:55:05;;;;;;;8.02;6.45;;;9.30;80.50;;;;;;12592118;28;20508;-73
2023/12/03 12:01:13;;;;;;;7.43;4.90;;;9.20;80.10;;;;;;12590519;28;20036;-73
2023/12/03 12:07:16;;;;;;;7.22;6.30;;;9.20;80.60;;;;;;12608278;28;20439;-73
2023/12/03 12:13:19;;;;;;;7.10;6.40;;;9.20;79.90;;;;;;12608059;28;20435;-73
2023/12/03 12:19:46;;;;;;;7.75;6.45;;;9.30;79.30;;;;;;12608032;28;20033;-72
2023/12/03 12:25:47;;;;;;;7.97;6.93;;;9.20;78.90;;;;;;12607402;28;20079;-72
2023/12/03 12:31:49;;;;;;;8.73;6.85;;;9.30;78.50;;;;;;12589834;28;20048;-73
2023/12/03 12:38:04;;;;;;;10.77;9.90;;;9.30;78.40;;;;;;12606763;28;20025;-73
2023/12/03 12:44:06;;;;;;;4.72;4.20;;;9.20;77.60;;;;;;12606389;28;20115;-72
2023/12/03 12:50:08;;;;;;;9.15;8.30;;;9.20;76.70;;;;;;12606130;28;20359;-72
2023/12/03 12:56:10;;;;;;;3.92;2.88;;;9.30;77.20;;;;;;12605933;28;20048;-73
2023/12/03 13:02:23;;;;;;;13.80;12.98;;;9.40;77.30;;;;;;12606346;28;20031;-73
2023/12/03 13:08:25;;;;;;;7.30;5.90;;;9.50;77.30;;;;;;12587942;28;20044;-72
2023/12/03 13:14:28;;;;;;;6.78;2.75;;;9.60;77.60;;;;;;12604241;28;20222;-73
2023/12/03 13:20:30;;;;;;;6.25;4.78;;;9.70;77.00;;;;;;12604828;28;20032;-72
2023/12/03 13:26:32;;;;;;;6.05;3.30;;;9.80;77.50;;;;;;12604497;28;20031;-72
2023/12/03 13:32:34;;;;;;;10.27;6.88;;;9.80;77.20;;;;;;12586440;28;20035;-73
2023/12/03 13:38:36;;;;;;;12.20;6.70;;;9.70;76.90;;;;;;12604236;28;20036;-72
2023/12/03 13:44:37;;;;;;;7.35;4.70;;;9.70;77.00;;;;;;12604061;28;20044;-72
2023/12/03 13:50:39;;;;;;;5.63;4.68;;;9.70;77.20;;;;;;12604262;28;20051;-72
2023/12/03 13:56:41;;;;;;;5.40;3.70;;;9.70;77.00;;;;;;12605037;28;20303;-72
2023/12/03 14:02:42;;;;;;;3.42;2.60;;;9.70;77.20;;;;;;12586337;28;20350;-72
2023/12/03 14:08:44;;;;;;;6.82;4.20;;;10.10;76.40;;;;;;12603287;28;20466;-72
2023/12/03 14:14:46;;;;;;;3.92;2.53;;;10.50;75.30;;;;;;12603241;28;20040;-72
2023/12/03 14:20:47;;;;;;;4.95;2.83;;;10.50;75.80;;;;;;12603146;28;20332;-72
2023/12/03 14:26:49;;;;;;;4.50;2.67;;;10.70;76.30;;;;;;12610012;28;20047;-72
2023/12/03 14:32:51;;;;;;;3.38;2.13;;;11.20;76.20;;;;;;12612530;28;20036;-73
2023/12/03 14:38:53;;;;;;;5.55;2.72;;;10.90;76.60;;;;;;12612548;28;20032;-72
2023/12/03 14:44:55;;;;;;;5.93;3.13;;;10.40;77.40;;;;;;12612014;28;20045;-72
2023/12/03 14:50:57;;;;;;;5.20;3.05;;;10.00;78.20;;;;;;12617371;22;20051;-73
2023/12/03 14:56:59;;;;;;;3.80;2.42;;;9.90;78.80;;;;;;12594437;28;20032;-72
2023/12/03 15:03:00;;;;;;;5.43;2.88;;;9.90;79.10;;;;;;12611329;28;20036;-72
2023/12/03 15:09:02;;;;;;;5.93;3.00;;;9.70;79.50;;;;;;12611534;28;20036;-73
2023/12/03 15:15:05;;;;;;;8.27;5.38;;;9.50;79.70;;;;;;12610735;28;20028;-72
2023/12/03 15:21:07;;;;;;;16.67;15.77;;;9.20;80.10;;;;;;12593021;28;20043;-72
2023/12/03 15:27:09;;;;;;;29.70;28.20;;;9.00;80.50;;;;;;12610211;28;20466;-72
2023/12/03 15:33:10;;;;;;;94.35;90.53;;;8.80;80.70;;;;;;12592031;28;20033;-72
2023/12/03 15:39:12;;;;;;;74.60;71.70;;;8.70;80.90;;;;;;12591421;28;20047;-72
2023/12/03 15:45:14;;;;;;;132.35;127.38;;;8.50;81.10;;;;;;12609746;28;20382;-74
2023/12/03 15:51:15;;;;;;;120.22;115.65;;;8.40;81.30;;;;;;12609120;28;20040;-74
2023/12/03 15:57:17;;;;;;;178.35;171.05;;;8.20;81.60;;;;;;12608754;28;20032;-74
2023/12/03 16:03:19;;;;;;;110.53;106.32;;;8.20;81.70;;;;;;12590718;28;20059;-74
2023/12/03 16:09:21;;;;;;;172.07;165.57;;;8.10;81.80;;;;;;12590764;28;20047;-74
2023/12/03 16:15:23;;;;;;;147.45;141.60;;;7.90;82.00;;;;;;12590368;28;20044;-74
2023/12/03 16:21:26;;;;;;;169.13;162.27;;;7.80;82.10;;;;;;12589820;28;20033;-74
2023/12/03 16:27:27;;;;;;;103.65;99.45;;;7.70;82.20;;;;;;12607906;28;20036;-74
2023/12/03 16:33:29;;;;;;;186.30;178.75;;;7.70;82.20;;;;;;12606939;28;20067;-74
2023/12/03 16:39:31;;;;;;;110.28;105.70;;;7.60;82.20;;;;;;12607392;28;20020;-74
2023/12/03 16:45:32;;;;;;;89.05;85.32;;;7.50;82.30;;;;;;12606298;28;20033;-74
2023/12/03 16:51:34;;;;;;;128.43;123.15;;;7.50;82.30;;;;;;12605956;28;20032;-74
2023/12/03 16:57:36;;;;;;;99.05;94.95;;;7.40;82.40;;;;;;12588681;28;20035;-74
2023/12/03 17:03:39;;;;;;;71.85;68.85;;;7.40;82.40;;;;;;12605528;28;20028;-74
2023/12/03 17:09:40;;;;;;;76.25;72.82;;;7.20;82.40;;;;;;12587255;28;20358;-74
2023/12/03 17:15:42;;;;;;;78.68;75.28;;;7.20;82.40;;;;;;12604910;28;20032;-74
2023/12/03 17:21:44;;;;;;;57.97;55.33;;;7.10;82.40;;;;;;12586716;28;20439;-74
2023/12/03 17:27:46;;;;;;;76.90;73.07;;;7.00;82.40;;;;;;12604531;28;20429;-74
2023/12/03 17:33:47;;;;;;;62.72;59.95;;;7.10;82.50;;;;;;12604556;28;20265;-74
2023/12/03 17:39:49;;;;;;;50.65;48.17;;;7.10;82.50;;;;;;12604224;28;20366;-74
2023/12/03 17:45:53;;;;;;;54.60;52.25;;;7.00;82.40;;;;;;12604007;28;20362;-73
2023/12/03 17:51:54;;;;;;;63.15;60.20;;;6.90;82.50;;;;;;12603394;28;20037;-74
2023/12/03 17:57:56;;;;;;;56.38;53.35;;;6.90;82.40;;;;;;12569127;28;20032;-75
2023/12/03 18:03:58;;;;;;;62.15;58.95;;;6.90;82.50;;;;;;12603541;28;20438;-74
2023/12/03 18:09:59;;;;;;;50.28;47.53;;;6.90;82.40;;;;;;12604212;28;20453;-74
2023/12/03 18:16:02;;;;;;;67.03;63.60;;;6.80;82.20;;;;;;12603236;28;20024;-73
2023/12/03 18:22:05;;;;;;;63.42;60.25;;;6.80;82.30;;;;;;12585501;28;20033;-73
2023/12/03 18:28:09;;;;;;;45.10;42.72;;;6.70;82.00;;;;;;12585143;28;20056;-73
2023/12/03 18:34:11;;;;;;;78.85;74.93;;;6.70;82.10;;;;;;12585308;28;20040;-73
2023/12/03 18:40:13;;;;;;;41.67;39.50;;;6.70;82.00;;;;;;12584942;28;20072;-73
2023/12/03 18:46:15;;;;;;;48.22;45.53;;;6.60;81.90;;;;;;12584839;28;20446;-74
2023/12/03 18:52:17;;;;;;;62.78;59.70;;;6.50;81.80;;;;;;12584547;28;20044;-73
2023/12/03 18:58:19;;;;;;;69.88;66.43;;;6.50;81.70;;;;;;12602213;28;20028;-73
2023/12/03 19:04:20;;;;;;;50.35;47.42;;;6.40;81.70;;;;;;12602756;28;20430;-74
2023/12/03 19:10:22;;;;;;;50.63;47.58;;;6.40;81.90;;;;;;12604561;28;20036;-74
2023/12/03 19:16:25;;;;;;;56.58;53.55;;;6.40;81.90;;;;;;12610890;28;20454;-73
2023/12/03 19:22:27;;;;;;;75.03;71.38;;;6.30;81.80;;;;;;12576123;28;20354;-73
2023/12/03 19:28:28;;;;;;;61.75;58.53;;;6.30;82.10;;;;;;12610175;28;20035;-73
2023/12/03 19:34:30;;;;;;;47.38;45.00;;;6.30;81.90;;;;;;12610039;28;20029;-73
2023/12/03 19:40:32;;;;;;;47.58;45.15;;;6.20;82.10;;;;;;12575461;28;20048;-74
2023/12/03 19:46:34;;;;;;;60.25;57.00;;;6.20;82.30;;;;;;12591448;28;20036;-74
2023/12/03 19:52:36;;;;;;;73.50;70.32;;;6.10;82.20;;;;;;12609375;28;20039;-74
2023/12/03 19:58:37;;;;;;;73.45;69.97;;;6.20;82.30;;;;;;12609447;28;20029;-73
2023/12/03 20:04:39;;;;;;;80.78;77.18;;;6.10;82.70;;;;;;12574750;28;20376;-73
2023/12/03 20:10:42;;;;;;;54.95;51.85;;;5.90;83.00;;;;;;12590986;28;20039;-74
2023/12/03 20:16:44;;;;;;;50.47;47.85;;;5.80;83.70;;;;;;12608000;28;20043;-73
2023/12/03 20:22:46;;;;;;;64.60;61.17;;;5.70;84.00;;;;;;12572932;28;20035;-73
2023/12/03 20:28:48;;;;;;;50.95;48.13;;;5.70;84.30;;;;;;12607366;28;20042;-73
2023/12/03 20:34:50;;;;;;;58.55;55.58;;;5.70;84.40;;;;;;12607068;28;20024;-74
2023/12/03 20:40:52;;;;;;;59.95;56.45;;;5.70;84.50;;;;;;12607400;28;20043;-73
2023/12/03 20:46:53;;;;;;;59.53;56.60;;;5.70;84.80;;;;;;12606514;28;20458;-73
2023/12/03 20:52:56;;;;;;;45.08;42.60;;;5.70;85.00;;;;;;12606066;28;20036;-73
2023/12/03 20:58:57;;;;;;;45.13;42.40;;;5.60;85.00;;;;;;12605984;28;20039;-73
2023/12/03 21:05:17;;;;;;;66.25;62.75;;;5.60;85.10;;;;;;12605630;28;20039;-73
2023/12/03 21:11:21;;;;;;;63.00;59.75;;;5.60;85.40;;;;;;12605379;28;20024;-73
2023/12/03 21:17:23;;;;;;;60.80;57.08;;;5.60;85.50;;;;;;12605152;28;20055;-73
2023/12/03 21:23:25;;;;;;;44.17;41.58;;;5.60;84.80;;;;;;12587765;28;20035;-73
2023/12/03 21:29:27;;;;;;;50.00;47.45;;;5.50;85.20;;;;;;12587449;28;20040;-73
2023/12/03 21:35:29;;;;;;;74.30;70.75;;;5.50;85.40;;;;;;12569848;28;20036;-73
2023/12/03 21:41:30;;;;;;;60.25;57.33;;;5.50;85.50;;;;;;12586920;28;20435;-73
2023/12/03 21:47:33;;;;;;;59.15;56.17;;;5.60;85.60;;;;;;12604099;28;20036;-72
2023/12/03 21:53:35;;;;;;;64.45;61.03;;;5.50;85.20;;;;;;12603740;28;20386;-73
2023/12/03 21:59:37;;;;;;;53.10;50.25;;;5.40;84.70;;;;;;12603771;28;20032;-73
2023/12/03 22:05:39;;;;;;;50.42;48.00;;;5.20;84.80;;;;;;12569351;28;20040;-73
2023/12/03 22:11:41;;;;;;;44.65;42.28;;;5.20;85.20;;;;;;12603402;28;20037;-73
2023/12/03 22:17:42;;;;;;;44.55;42.13;;;5.20;85.10;;;;;;12585463;28;20040;-73
2023/12/03 22:23:44;;;;;;;45.42;43.00;;;5.30;85.10;;;;;;12603232;28;20028;-73
2023/12/03 22:29:46;;;;;;;62.38;59.42;;;5.30;85.00;;;;;;12602985;28;20032;-73
2023/12/03 22:35:47;;;;;;;54.28;51.58;;;5.30;85.00;;;;;;12585027;28;20029;-73
2023/12/03 22:41:49;;;;;;;69.22;66.18;;;5.20;84.70;;;;;;12572879;28;20037;-73
2023/12/03 22:47:51;;;;;;;64.85;61.60;;;5.10;85.00;;;;;;12559706;28;20032;-73
2023/12/03 22:53:52;;;;;;;41.50;38.83;;;5.10;85.40;;;;;;12605859;23;20044;-73
2023/12/03 22:59:54;;;;;;;58.60;55.85;;;5.10;85.00;;;;;;12611674;28;20040;-73
2023/12/03 23:06:00;;;;;;;45.65;43.30;;;4.90;85.40;;;;;;12593555;28;20028;-73
2023/12/03 23:12:04;;;;;;;58.63;55.78;;;4.90;85.60;;;;;;12611219;28;20143;-74
2023/12/03 23:18:07;;;;;;;48.30;45.75;;;5.00;85.70;;;;;;12610843;28;20029;-73
2023/12/03 23:24:09;;;;;;;51.03;48.53;;;5.00;85.40;;;;;;12592720;28;20358;-73
2023/12/03 23:30:11;;;;;;;55.42;52.65;;;4.90;85.40;;;;;;12592579;28;20044;-74
2023/12/03 23:36:13;;;;;;;56.90;54.15;;;4.90;85.50;;;;;;12610018;28;20029;-73
2023/12/03 23:42:14;;;;;;;46.88;44.50;;;4.90;85.30;;;;;;12609704;28;20028;-73
2023/12/03 23:48:16;;;;;;;54.78;52.20;;;4.70;85.10;;;;;;12609516;28;20032;-73
2023/12/03 23:54:18;;;;;;;55.88;53.33;;;4.70;85.50;;;;;;12609639;28;20052;-73
